createdAt,value
2023-04-15T00:04:00.819Z,7.90
2023-04-15T00:19:00.784Z,7.85
2023-04-15T00:34:00.421Z,7.82
2023-04-15T00:49:00.479Z,7.84
2023-04-15T01:04:00.313Z,7.81
2023-04-15T01:19:00.197Z,7.81
2023-04-15T01:33:59.773Z,7.78
2023-04-15T01:48:59.933Z,7.77
2023-04-15T02:03:59.523Z,7.79
2023-04-15T02:18:59.374Z,7.81
2023-04-15T02:33:59.090Z,7.84
2023-04-15T02:48:59.120Z,7.97
2023-04-15T03:03:58.819Z,7.99
2023-04-15T03:18:58.762Z,8.04
2023-04-15T03:33:58.431Z,8.11
2023-04-15T03:48:58.372Z,8.11
2023-04-15T04:03:58.191Z,8.17
2023-04-15T04:18:57.950Z,8.22
2023-04-15T04:33:57.794Z,8.26
2023-04-15T04:48:57.609Z,8.32
2023-04-15T05:03:57.698Z,8.37
2023-04-15T05:18:57.283Z,8.45
2023-04-15T05:33:57.122Z,8.54
2023-04-15T05:48:56.946Z,8.72
2023-04-15T06:03:56.995Z,8.94
2023-04-15T06:18:56.623Z,9.20
2023-04-15T06:33:56.467Z,9.40
2023-04-15T06:48:56.308Z,9.64
2023-04-15T07:03:56.272Z,9.93
2023-04-15T07:18:56.010Z,9.96
2023-04-15T07:33:56.838Z,9.63
2023-04-15T07:48:55.714Z,9.53
2023-04-15T08:03:55.823Z,9.50
2023-04-15T08:18:55.461Z,9.45
2023-04-15T08:33:55.533Z,9.56
2023-04-15T08:48:55.212Z,9.58
2023-04-15T09:03:55.098Z,9.75
2023-04-15T09:18:54.894Z,9.85
2023-04-15T09:33:54.622Z,9.96
2023-04-15T09:48:54.385Z,9.86
2023-04-15T10:03:54.293Z,9.79
2023-04-15T10:18:54.049Z,9.83
2023-04-15T10:33:53.926Z,10.04
2023-04-15T10:48:54.617Z,10.03
2023-04-15T11:03:53.771Z,10.03
2023-04-15T11:18:53.399Z,10.03
2023-04-15T11:33:53.260Z,10.10
2023-04-15T11:48:53.154Z,10.09
2023-04-15T12:03:53.032Z,10.04
2023-04-15T12:18:52.857Z,10.34
2023-04-15T12:33:52.660Z,10.58
2023-04-15T12:48:52.447Z,10.81
2023-04-15T13:03:52.457Z,10.81
2023-04-15T13:18:52.278Z,10.91
2023-04-15T13:33:51.956Z,10.95
2023-04-15T13:48:51.935Z,10.81
2023-04-15T14:02:00.301Z,10.71
2023-04-15T14:17:01.067Z,10.55
2023-04-15T14:32:11.358Z,10.55
2023-04-15T14:47:00.734Z,10.42
2023-04-15T15:02:00.683Z,10.40
2023-04-15T15:17:00.428Z,10.63
2023-04-15T15:32:00.350Z,10.65
2023-04-15T15:47:00.201Z,10.70
2023-04-15T16:01:59.971Z,10.62
2023-04-15T16:16:59.765Z,10.53
2023-04-15T16:31:59.656Z,10.51
2023-04-15T16:46:59.451Z,10.43
2023-04-15T17:01:59.498Z,10.32
2023-04-15T17:16:59.203Z,10.32
2023-04-15T17:31:58.980Z,10.25
2023-04-15T17:46:58.955Z,10.18
2023-04-15T18:01:58.808Z,10.04
2023-04-15T18:16:58.506Z,9.96
2023-04-15T18:31:58.479Z,9.88
2023-04-15T18:46:58.283Z,9.78
2023-04-15T19:01:58.093Z,9.78
2023-04-15T19:16:57.937Z,9.76
2023-04-15T19:31:57.788Z,9.73
2023-04-15T19:46:57.736Z,9.66
2023-04-15T20:01:57.491Z,9.63
2023-04-15T20:16:57.268Z,9.61
2023-04-15T20:31:57.178Z,9.53
2023-04-15T20:46:56.990Z,9.53
2023-04-15T21:01:57.389Z,9.53
2023-04-15T21:16:56.623Z,9.49
2023-04-15T21:31:56.525Z,9.49
2023-04-15T21:46:56.502Z,9.46
2023-04-15T22:01:57.331Z,9.45
2023-04-15T22:16:56.032Z,9.43
2023-04-15T22:31:55.808Z,9.40
2023-04-15T22:46:55.678Z,9.40
2023-04-15T23:01:55.586Z,9.35
2023-04-15T23:16:55.377Z,9.35
2023-04-15T23:31:55.217Z,9.31
2023-04-15T23:46:55.112Z,9.27
